Terminal Aerodrome Forecast
Issued by NWS

Home | Current Version | Previous Version | Graphics & Text | Print | Product List | Glossary On
Versions: 1 2 3 4 5 6 7 8 9 10 11 12 13 14 15 16
000
FTUS43 KLSX 170500
TAFSUS
TAF
KSUS 170520Z 1706/1806 00000KT P6SM BKN250
      TEMPO 1707/1710 3SM BR
     FM171000 00000KT 1SM BR BKN005
     FM171500 11005KT P6SM SCT040=

USA.gov is the U.S. government's official web portal to all federal, state and local government web resources and services.